sensor_id;sensor_type;location;lat;lon;timestamp;P1;durP1;ratioP1;P2;durP2;ratioP2
56297;SDS011;42208;6.376;-10.782;2023-03-02T00:02:10;51.20;;;19.50;;
56297;SDS011;42208;6.376;-10.782;2023-03-02T00:04:44;49.40;;;19.92;;
56297;SDS011;42208;6.376;-10.782;2023-03-02T00:07:25;52.20;;;16.80;;
56297;SDS011;42208;6.376;-10.782;2023-03-02T00:09:59;52.78;;;17.33;;
56297;SDS011;42208;6.376;-10.782;2023-03-02T00:12:27;57.20;;;18.02;;
56297;SDS011;42208;6.376;-10.782;2023-03-02T00:14:59;46.13;;;17.47;;
56297;SDS011;42208;6.376;-10.782;2023-03-02T00:17:27;49.60;;;16.80;;
56297;SDS011;42208;6.376;-10.782;2023-03-02T00:19:56;41.90;;;17.60;;
56297;SDS011;42208;6.376;-10.782;2023-03-02T00:22:24;48.72;;;17.23;;
56297;SDS011;42208;6.376;-10.782;2023-03-02T00:24:52;48.92;;;15.73;;
56297;SDS011;42208;6.376;-10.782;2023-03-02T00:27:21;53.63;;;19.95;;
56297;SDS011;42208;6.376;-10.782;2023-03-02T00:29:50;47.50;;;20.55;;
56297;SDS011;42208;6.376;-10.782;2023-03-02T00:32:18;56.97;;;22.52;;
56297;SDS011;42208;6.376;-10.782;2023-03-02T00:34:46;50.22;;;22.20;;
56297;SDS011;42208;6.376;-10.782;2023-03-02T00:37:15;53.10;;;22.23;;
56297;SDS011;42208;6.376;-10.782;2023-03-02T00:39:44;44.25;;;18.65;;
56297;SDS011;42208;6.376;-10.782;2023-03-02T00:42:13;47.20;;;17.67;;
56297;SDS011;42208;6.376;-10.782;2023-03-02T00:44:41;47.65;;;16.65;;
56297;SDS011;42208;6.376;-10.782;2023-03-02T00:47:09;55.42;;;19.27;;
56297;SDS011;42208;6.376;-10.782;2023-03-02T00:49:38;79.60;;;28.95;;
56297;SDS011;42208;6.376;-10.782;2023-03-02T00:52:06;77.47;;;23.58;;
56297;SDS011;42208;6.376;-10.782;2023-03-02T00:54:35;74.20;;;26.38;;
56297;SDS011;42208;6.376;-10.782;2023-03-02T00:57:03;76.68;;;28.20;;
56297;SDS011;42208;6.376;-10.782;2023-03-02T00:59:32;120.93;;;47.38;;
56297;SDS011;42208;6.376;-10.782;2023-03-02T01:02:07;214.95;;;77.10;;
56297;SDS011;42208;6.376;-10.782;2023-03-02T01:04:38;158.35;;;57.10;;
56297;SDS011;42208;6.376;-10.782;2023-03-02T01:07:12;118.57;;;42.38;;
56297;SDS011;42208;6.376;-10.782;2023-03-02T01:10:46;121.28;;;42.53;;
56297;SDS011;42208;6.376;-10.782;2023-03-02T01:13:15;115.38;;;44.10;;
56297;SDS011;42208;6.376;-10.782;2023-03-02T01:15:43;106.40;;;39.67;;
56297;SDS011;42208;6.376;-10.782;2023-03-02T01:18:11;131.10;;;48.85;;
56297;SDS011;42208;6.376;-10.782;2023-03-02T01:20:40;101.40;;;36.35;;
56297;SDS011;42208;6.376;-10.782;2023-03-02T01:23:08;98.22;;;38.13;;
56297;SDS011;42208;6.376;-10.782;2023-03-02T01:25:37;105.00;;;38.05;;
56297;SDS011;42208;6.376;-10.782;2023-03-02T01:28:05;73.18;;;27.77;;
56297;SDS011;42208;6.376;-10.782;2023-03-02T01:30:33;67.43;;;23.80;;
56297;SDS011;42208;6.376;-10.782;2023-03-02T01:33:02;60.03;;;23.50;;
56297;SDS011;42208;6.376;-10.782;2023-03-02T01:35:30;54.17;;;22.77;;
56297;SDS011;42208;6.376;-10.782;2023-03-02T01:37:58;45.67;;;20.08;;
56297;SDS011;42208;6.376;-10.782;2023-03-02T01:40:27;54.22;;;20.83;;
56297;SDS011;42208;6.376;-10.782;2023-03-02T01:42:56;68.28;;;25.95;;
56297;SDS011;42208;6.376;-10.782;2023-03-02T01:48:26;72.70;;;31.35;;
56297;SDS011;42208;6.376;-10.782;2023-03-02T01:51:10;82.13;;;33.80;;
56297;SDS011;42208;6.376;-10.782;2023-03-02T01:53:43;74.43;;;32.33;;
56297;SDS011;42208;6.376;-10.782;2023-03-02T01:56:16;58.42;;;22.45;;
56297;SDS011;42208;6.376;-10.782;2023-03-02T01:58:48;53.30;;;21.10;;
56297;SDS011;42208;6.376;-10.782;2023-03-02T02:01:20;45.03;;;18.70;;
56297;SDS011;42208;6.376;-10.782;2023-03-02T02:03:49;39.00;;;17.10;;
56297;SDS011;42208;6.376;-10.782;2023-03-02T02:06:25;42.78;;;15.50;;
56297;SDS011;42208;6.376;-10.782;2023-03-02T02:09:07;55.85;;;17.45;;
56297;SDS011;42208;6.376;-10.782;2023-03-02T02:11:43;41.55;;;16.67;;
56297;SDS011;42208;6.376;-10.782;2023-03-02T02:14:12;44.38;;;16.17;;
56297;SDS011;42208;6.376;-10.782;2023-03-02T02:16:41;42.42;;;15.70;;
56297;SDS011;42208;6.376;-10.782;2023-03-02T02:21:56;46.63;;;18.10;;
56297;SDS011;42208;6.376;-10.782;2023-03-02T02:24:32;41.83;;;15.20;;
56297;SDS011;42208;6.376;-10.782;2023-03-02T02:27:16;43.38;;;16.73;;
56297;SDS011;42208;6.376;-10.782;2023-03-02T02:29:47;34.95;;;13.90;;
56297;SDS011;42208;6.376;-10.782;2023-03-02T02:32:23;44.33;;;14.65;;
56297;SDS011;42208;6.376;-10.782;2023-03-02T02:35:00;42.65;;;14.18;;
56297;SDS011;42208;6.376;-10.782;2023-03-02T02:37:37;34.63;;;12.38;;
56297;SDS011;42208;6.376;-10.782;2023-03-02T02:40:16;32.28;;;12.85;;
56297;SDS011;42208;6.376;-10.782;2023-03-02T02:42:50;30.98;;;11.13;;
56297;SDS011;42208;6.376;-10.782;2023-03-02T02:45:21;29.13;;;10.40;;
56297;SDS011;42208;6.376;-10.782;2023-03-02T02:47:51;33.45;;;12.55;;
56297;SDS011;42208;6.376;-10.782;2023-03-02T02:50:23;31.33;;;10.88;;
56297;SDS011;42208;6.376;-10.782;2023-03-02T02:52:56;29.40;;;11.27;;
56297;SDS011;42208;6.376;-10.782;2023-03-02T02:55:36;23.15;;;11.13;;
56297;SDS011;42208;6.376;-10.782;2023-03-02T02:58:12;25.75;;;9.82;;
56297;SDS011;42208;6.376;-10.782;2023-03-02T03:00:54;26.10;;;10.80;;
56297;SDS011;42208;6.376;-10.782;2023-03-02T03:03:27;36.55;;;11.98;;
56297;SDS011;42208;6.376;-10.782;2023-03-02T03:06:05;33.28;;;11.65;;
56297;SDS011;42208;6.376;-10.782;2023-03-02T03:11:30;25.80;;;10.65;;
56297;SDS011;42208;6.376;-10.782;2023-03-02T03:14:06;27.48;;;11.30;;
56297;SDS011;42208;6.376;-10.782;2023-03-02T03:16:45;36.45;;;13.98;;
56297;SDS011;42208;6.376;-10.782;2023-03-02T03:19:16;47.67;;;17.25;;
56297;SDS011;42208;6.376;-10.782;2023-03-02T03:22:00;49.35;;;21.60;;
56297;SDS011;42208;6.376;-10.782;2023-03-02T03:24:33;60.63;;;22.35;;
56297;SDS011;42208;6.376;-10.782;2023-03-02T03:27:03;52.53;;;19.10;;
56297;SDS011;42208;6.376;-10.782;2023-03-02T03:29:35;47.53;;;17.38;;
56297;SDS011;42208;6.376;-10.782;2023-03-02T03:32:07;45.40;;;16.40;;
56297;SDS011;42208;6.376;-10.782;2023-03-02T03:34:37;35.85;;;12.68;;
56297;SDS011;42208;6.376;-10.782;2023-03-02T03:37:11;31.17;;;11.73;;
56297;SDS011;42208;6.376;-10.782;2023-03-02T03:39:42;30.13;;;11.43;;
56297;SDS011;42208;6.376;-10.782;2023-03-02T03:42:11;31.25;;;10.02;;
56297;SDS011;42208;6.376;-10.782;2023-03-02T03:44:40;25.83;;;9.63;;
56297;SDS011;42208;6.376;-10.782;2023-03-02T03:47:08;19.95;;;9.02;;
56297;SDS011;42208;6.376;-10.782;2023-03-02T03:52:33;24.05;;;8.90;;
56297;SDS011;42208;6.376;-10.782;2023-03-02T03:55:10;19.90;;;8.10;;
56297;SDS011;42208;6.376;-10.782;2023-03-02T03:57:40;27.45;;;8.93;;
56297;SDS011;42208;6.376;-10.782;2023-03-02T04:00:10;27.58;;;9.43;;
56297;SDS011;42208;6.376;-10.782;2023-03-02T04:02:44;29.83;;;9.30;;
56297;SDS011;42208;6.376;-10.782;2023-03-02T04:05:13;20.33;;;8.25;;
56297;SDS011;42208;6.376;-10.782;2023-03-02T04:07:42;26.65;;;9.23;;
56297;SDS011;42208;6.376;-10.782;2023-03-02T04:10:10;17.55;;;8.45;;
56297;SDS011;42208;6.376;-10.782;2023-03-02T04:12:41;23.52;;;8.75;;
56297;SDS011;42208;6.376;-10.782;2023-03-02T04:15:13;34.92;;;10.40;;
56297;SDS011;42208;6.376;-10.782;2023-03-02T04:17:44;25.83;;;9.68;;
56297;SDS011;42208;6.376;-10.782;2023-03-02T04:20:16;32.17;;;11.47;;
56297;SDS011;42208;6.376;-10.782;2023-03-02T04:25:19;46.25;;;14.20;;
56297;SDS011;42208;6.376;-10.782;2023-03-02T04:27:52;26.60;;;10.15;;
56297;SDS011;42208;6.376;-10.782;2023-03-02T04:30:25;31.98;;;12.50;;
56297;SDS011;42208;6.376;-10.782;2023-03-02T04:32:54;34.47;;;13.70;;
56297;SDS011;42208;6.376;-10.782;2023-03-02T04:35:24;31.63;;;12.20;;
56297;SDS011;42208;6.376;-10.782;2023-03-02T04:37:52;40.10;;;13.60;;
56297;SDS011;42208;6.376;-10.782;2023-03-02T04:40:20;31.75;;;12.43;;
56297;SDS011;42208;6.376;-10.782;2023-03-02T04:42:49;32.13;;;13.43;;
56297;SDS011;42208;6.376;-10.782;2023-03-02T04:45:17;31.48;;;11.52;;
56297;SDS011;42208;6.376;-10.782;2023-03-02T04:47:45;29.90;;;12.43;;
56297;SDS011;42208;6.376;-10.782;2023-03-02T04:50:14;28.63;;;10.98;;
56297;SDS011;42208;6.376;-10.782;2023-03-02T04:52:42;37.08;;;12.13;;
56297;SDS011;42208;6.376;-10.782;2023-03-02T04:55:17;35.25;;;12.15;;
56297;SDS011;42208;6.376;-10.782;2023-03-02T04:57:48;27.75;;;10.75;;
56297;SDS011;42208;6.376;-10.782;2023-03-02T05:00:17;37.83;;;10.65;;
56297;SDS011;42208;6.376;-10.782;2023-03-02T05:02:46;20.13;;;9.90;;
56297;SDS011;42208;6.376;-10.782;2023-03-02T05:05:16;24.48;;;10.82;;
56297;SDS011;42208;6.376;-10.782;2023-03-02T05:07:46;23.52;;;10.40;;
56297;SDS011;42208;6.376;-10.782;2023-03-02T05:10:15;23.80;;;10.45;;
56297;SDS011;42208;6.376;-10.782;2023-03-02T05:12:44;31.27;;;11.43;;
56297;SDS011;42208;6.376;-10.782;2023-03-02T05:15:12;33.20;;;11.75;;
56297;SDS011;42208;6.376;-10.782;2023-03-02T05:17:41;28.33;;;10.85;;
56297;SDS011;42208;6.376;-10.782;2023-03-02T05:20:10;33.80;;;10.02;;
56297;SDS011;42208;6.376;-10.782;2023-03-02T05:22:38;27.27;;;10.52;;
56297;SDS011;42208;6.376;-10.782;2023-03-02T05:25:07;28.85;;;11.40;;
56297;SDS011;42208;6.376;-10.782;2023-03-02T05:27:36;31.98;;;11.60;;
56297;SDS011;42208;6.376;-10.782;2023-03-02T05:30:04;33.53;;;12.27;;
56297;SDS011;42208;6.376;-10.782;2023-03-02T05:32:34;34.05;;;11.93;;
56297;SDS011;42208;6.376;-10.782;2023-03-02T05:35:02;32.22;;;11.93;;
56297;SDS011;42208;6.376;-10.782;2023-03-02T05:37:31;25.48;;;10.07;;
56297;SDS011;42208;6.376;-10.782;2023-03-02T05:39:59;29.75;;;11.80;;
56297;SDS011;42208;6.376;-10.782;2023-03-02T05:42:28;32.08;;;10.77;;
56297;SDS011;42208;6.376;-10.782;2023-03-02T05:44:56;26.00;;;11.65;;
56297;SDS011;42208;6.376;-10.782;2023-03-02T05:47:24;32.75;;;12.88;;
56297;SDS011;42208;6.376;-10.782;2023-03-02T05:49:53;35.60;;;15.27;;
56297;SDS011;42208;6.376;-10.782;2023-03-02T05:52:21;40.38;;;16.00;;
56297;SDS011;42208;6.376;-10.782;2023-03-02T05:54:49;36.00;;;14.23;;
56297;SDS011;42208;6.376;-10.782;2023-03-02T05:57:18;36.40;;;14.23;;
56297;SDS011;42208;6.376;-10.782;2023-03-02T05:59:46;36.10;;;12.77;;
56297;SDS011;42208;6.376;-10.782;2023-03-02T06:02:14;33.35;;;15.02;;
56297;SDS011;42208;6.376;-10.782;2023-03-02T06:04:43;32.17;;;13.80;;
56297;SDS011;42208;6.376;-10.782;2023-03-02T06:07:11;23.88;;;11.13;;
56297;SDS011;42208;6.376;-10.782;2023-03-02T06:09:40;28.13;;;10.75;;
56297;SDS011;42208;6.376;-10.782;2023-03-02T06:12:08;27.38;;;11.35;;
56297;SDS011;42208;6.376;-10.782;2023-03-02T06:14:36;31.77;;;11.38;;
56297;SDS011;42208;6.376;-10.782;2023-03-02T06:17:05;32.42;;;12.13;;
56297;SDS011;42208;6.376;-10.782;2023-03-02T06:19:33;35.00;;;11.70;;
56297;SDS011;42208;6.376;-10.782;2023-03-02T06:22:01;32.35;;;12.20;;
56297;SDS011;42208;6.376;-10.782;2023-03-02T06:24:29;33.63;;;11.98;;
56297;SDS011;42208;6.376;-10.782;2023-03-02T06:26:58;29.75;;;12.00;;
56297;SDS011;42208;6.376;-10.782;2023-03-02T06:29:26;29.08;;;11.82;;
56297;SDS011;42208;6.376;-10.782;2023-03-02T06:31:55;27.45;;;12.27;;
56297;SDS011;42208;6.376;-10.782;2023-03-02T06:34:23;32.00;;;11.23;;
56297;SDS011;42208;6.376;-10.782;2023-03-02T06:36:51;33.85;;;11.23;;
56297;SDS011;42208;6.376;-10.782;2023-03-02T06:39:19;25.48;;;11.00;;
56297;SDS011;42208;6.376;-10.782;2023-03-02T06:41:48;31.60;;;11.70;;
56297;SDS011;42208;6.376;-10.782;2023-03-02T06:44:17;30.52;;;12.18;;
56297;SDS011;42208;6.376;-10.782;2023-03-02T06:46:45;33.65;;;12.18;;
56297;SDS011;42208;6.376;-10.782;2023-03-02T06:49:13;32.92;;;12.45;;
56297;SDS011;42208;6.376;-10.782;2023-03-02T06:51:41;27.83;;;12.48;;
56297;SDS011;42208;6.376;-10.782;2023-03-02T06:54:10;25.95;;;10.32;;
56297;SDS011;42208;6.376;-10.782;2023-03-02T06:56:38;27.10;;;11.18;;
56297;SDS011;42208;6.376;-10.782;2023-03-02T06:59:06;24.15;;;11.25;;
56297;SDS011;42208;6.376;-10.782;2023-03-02T07:01:35;20.80;;;10.25;;
56297;SDS011;42208;6.376;-10.782;2023-03-02T07:04:03;27.77;;;10.82;;
56297;SDS011;42208;6.376;-10.782;2023-03-02T07:06:32;32.40;;;14.68;;
56297;SDS011;42208;6.376;-10.782;2023-03-02T07:09:03;39.53;;;16.88;;
56297;SDS011;42208;6.376;-10.782;2023-03-02T07:11:31;35.65;;;16.63;;
56297;SDS011;42208;6.376;-10.782;2023-03-02T07:14:00;40.83;;;16.52;;
56297;SDS011;42208;6.376;-10.782;2023-03-02T07:16:29;48.65;;;18.38;;
56297;SDS011;42208;6.376;-10.782;2023-03-02T07:18:59;40.33;;;18.25;;
56297;SDS011;42208;6.376;-10.782;2023-03-02T07:21:27;43.17;;;15.05;;
56297;SDS011;42208;6.376;-10.782;2023-03-02T07:23:56;26.60;;;11.52;;
56297;SDS011;42208;6.376;-10.782;2023-03-02T07:26:25;20.98;;;9.07;;
56297;SDS011;42208;6.376;-10.782;2023-03-02T07:28:53;30.60;;;9.75;;
56297;SDS011;42208;6.376;-10.782;2023-03-02T07:31:21;24.80;;;10.55;;
56297;SDS011;42208;6.376;-10.782;2023-03-02T07:33:49;36.75;;;11.40;;
56297;SDS011;42208;6.376;-10.782;2023-03-02T07:36:17;28.20;;;11.32;;
56297;SDS011;42208;6.376;-10.782;2023-03-02T07:38:46;27.30;;;12.38;;
56297;SDS011;42208;6.376;-10.782;2023-03-02T07:41:14;36.15;;;13.55;;
56297;SDS011;42208;6.376;-10.782;2023-03-02T07:43:42;35.08;;;14.45;;
56297;SDS011;42208;6.376;-10.782;2023-03-02T07:46:11;34.70;;;14.13;;
56297;SDS011;42208;6.376;-10.782;2023-03-02T07:48:39;66.78;;;15.65;;
56297;SDS011;42208;6.376;-10.782;2023-03-02T07:51:07;39.47;;;13.48;;
56297;SDS011;42208;6.376;-10.782;2023-03-02T07:53:36;36.40;;;13.07;;
56297;SDS011;42208;6.376;-10.782;2023-03-02T07:56:05;32.88;;;13.15;;
56297;SDS011;42208;6.376;-10.782;2023-03-02T07:58:35;44.60;;;15.02;;
56297;SDS011;42208;6.376;-10.782;2023-03-02T08:01:04;37.85;;;14.48;;
56297;SDS011;42208;6.376;-10.782;2023-03-02T08:03:32;40.60;;;15.70;;
56297;SDS011;42208;6.376;-10.782;2023-03-02T08:06:05;35.53;;;13.50;;
56297;SDS011;42208;6.376;-10.782;2023-03-02T08:08:36;40.55;;;13.32;;
56297;SDS011;42208;6.376;-10.782;2023-03-02T08:11:11;32.83;;;12.65;;
56297;SDS011;42208;6.376;-10.782;2023-03-02T08:13:42;31.20;;;11.63;;
56297;SDS011;42208;6.376;-10.782;2023-03-02T08:16:11;44.22;;;12.63;;
56297;SDS011;42208;6.376;-10.782;2023-03-02T08:18:41;36.70;;;12.93;;
56297;SDS011;42208;6.376;-10.782;2023-03-02T08:21:11;35.08;;;14.65;;
56297;SDS011;42208;6.376;-10.782;2023-03-02T08:23:47;39.28;;;13.02;;
56297;SDS011;42208;6.376;-10.782;2023-03-02T08:26:17;43.30;;;12.52;;
56297;SDS011;42208;6.376;-10.782;2023-03-02T08:28:46;41.45;;;12.00;;
56297;SDS011;42208;6.376;-10.782;2023-03-02T08:31:14;70.95;;;15.38;;
56297;SDS011;42208;6.376;-10.782;2023-03-02T08:33:43;36.78;;;14.13;;
56297;SDS011;42208;6.376;-10.782;2023-03-02T08:36:12;46.88;;;11.63;;
56297;SDS011;42208;6.376;-10.782;2023-03-02T08:38:42;40.75;;;12.32;;
56297;SDS011;42208;6.376;-10.782;2023-03-02T08:41:12;46.10;;;12.13;;
56297;SDS011;42208;6.376;-10.782;2023-03-02T08:43:42;46.22;;;12.50;;
56297;SDS011;42208;6.376;-10.782;2023-03-02T08:46:11;33.28;;;11.57;;
56297;SDS011;42208;6.376;-10.782;2023-03-02T08:48:41;38.85;;;11.45;;
56297;SDS011;42208;6.376;-10.782;2023-03-02T08:51:11;32.13;;;10.68;;
56297;SDS011;42208;6.376;-10.782;2023-03-02T08:53:42;28.35;;;13.00;;
56297;SDS011;42208;6.376;-10.782;2023-03-02T08:56:34;34.07;;;13.07;;
56297;SDS011;42208;6.376;-10.782;2023-03-02T08:59:04;35.38;;;11.40;;
56297;SDS011;42208;6.376;-10.782;2023-03-02T09:01:34;35.95;;;11.05;;
56297;SDS011;42208;6.376;-10.782;2023-03-02T09:04:05;39.53;;;12.13;;
56297;SDS011;42208;6.376;-10.782;2023-03-02T09:06:35;41.60;;;13.40;;
56297;SDS011;42208;6.376;-10.782;2023-03-02T09:09:06;46.03;;;13.15;;
56297;SDS011;42208;6.376;-10.782;2023-03-02T09:11:35;27.90;;;11.32;;
56297;SDS011;42208;6.376;-10.782;2023-03-02T09:14:05;44.92;;;11.88;;
56297;SDS011;42208;6.376;-10.782;2023-03-02T09:16:33;32.80;;;11.20;;
56297;SDS011;42208;6.376;-10.782;2023-03-02T09:19:01;49.90;;;13.23;;
56297;SDS011;42208;6.376;-10.782;2023-03-02T09:21:30;47.75;;;15.85;;
56297;SDS011;42208;6.376;-10.782;2023-03-02T09:24:00;49.15;;;15.23;;
56297;SDS011;42208;6.376;-10.782;2023-03-02T09:26:28;51.72;;;17.08;;
56297;SDS011;42208;6.376;-10.782;2023-03-02T09:28:56;53.80;;;18.23;;
56297;SDS011;42208;6.376;-10.782;2023-03-02T09:31:24;46.42;;;15.40;;
56297;SDS011;42208;6.376;-10.782;2023-03-02T09:33:56;58.13;;;16.17;;
56297;SDS011;42208;6.376;-10.782;2023-03-02T09:36:24;49.13;;;16.80;;
56297;SDS011;42208;6.376;-10.782;2023-03-02T09:38:53;47.83;;;14.20;;
56297;SDS011;42208;6.376;-10.782;2023-03-02T09:41:32;32.50;;;10.75;;
56297;SDS011;42208;6.376;-10.782;2023-03-02T09:47:03;47.25;;;12.95;;
56297;SDS011;42208;6.376;-10.782;2023-03-02T09:55:21;85.63;;;18.00;;
56297;SDS011;42208;6.376;-10.782;2023-03-02T09:57:51;59.42;;;18.10;;
56297;SDS011;42208;6.376;-10.782;2023-03-02T10:02:51;43.20;;;11.80;;
56297;SDS011;42208;6.376;-10.782;2023-03-02T10:05:49;106.38;;;37.72;;
56297;SDS011;42208;6.376;-10.782;2023-03-02T10:08:26;71.53;;;26.08;;
56297;SDS011;42208;6.376;-10.782;2023-03-02T10:10:57;57.25;;;18.27;;
56297;SDS011;42208;6.376;-10.782;2023-03-02T10:13:50;64.50;;;19.63;;
56297;SDS011;42208;6.376;-10.782;2023-03-02T10:16:36;40.72;;;10.43;;
56297;SDS011;42208;6.376;-10.782;2023-03-02T10:19:26;30.00;;;9.07;;
56297;SDS011;42208;6.376;-10.782;2023-03-02T10:24:39;42.25;;;13.55;;
56297;SDS011;42208;6.376;-10.782;2023-03-02T10:27:23;48.25;;;10.40;;
56297;SDS011;42208;6.376;-10.782;2023-03-02T10:32:30;58.40;;;16.63;;
56297;SDS011;42208;6.376;-10.782;2023-03-02T10:35:22;35.92;;;8.40;;
56297;SDS011;42208;6.376;-10.782;2023-03-02T10:38:05;35.30;;;8.98;;
56297;SDS011;42208;6.376;-10.782;2023-03-02T10:40:46;41.20;;;9.13;;
56297;SDS011;42208;6.376;-10.782;2023-03-02T10:44:04;37.03;;;9.50;;
56297;SDS011;42208;6.376;-10.782;2023-03-02T10:46:10;34.30;;;9.25;;
56297;SDS011;42208;6.376;-10.782;2023-03-02T10:48:46;31.00;;;9.52;;
56297;SDS011;42208;6.376;-10.782;2023-03-02T10:51:22;32.58;;;8.45;;
56297;SDS011;42208;6.376;-10.782;2023-03-02T10:54:07;35.20;;;10.75;;
56297;SDS011;42208;6.376;-10.782;2023-03-02T10:56:42;35.78;;;9.35;;
56297;SDS011;42208;6.376;-10.782;2023-03-02T11:02:17;32.97;;;8.80;;
56297;SDS011;42208;6.376;-10.782;2023-03-02T11:04:48;28.15;;;9.60;;
56297;SDS011;42208;6.376;-10.782;2023-03-02T11:07:26;53.22;;;9.35;;
56297;SDS011;42208;6.376;-10.782;2023-03-02T11:10:03;49.65;;;9.60;;
56297;SDS011;42208;6.376;-10.782;2023-03-02T11:12:34;38.72;;;8.88;;
56297;SDS011;42208;6.376;-10.782;2023-03-02T11:18:39;40.75;;;8.52;;
56297;SDS011;42208;6.376;-10.782;2023-03-02T11:20:50;30.75;;;8.85;;
56297;SDS011;42208;6.376;-10.782;2023-03-02T11:23:25;32.85;;;9.88;;
56297;SDS011;42208;6.376;-10.782;2023-03-02T11:26:01;40.22;;;10.23;;
56297;SDS011;42208;6.376;-10.782;2023-03-02T11:31:10;43.50;;;10.25;;
56297;SDS011;42208;6.376;-10.782;2023-03-02T11:37:09;44.28;;;13.68;;
56297;SDS011;42208;6.376;-10.782;2023-03-02T11:42:35;38.72;;;9.18;;
56297;SDS011;42208;6.376;-10.782;2023-03-02T11:45:42;48.40;;;13.73;;
56297;SDS011;42208;6.376;-10.782;2023-03-02T11:48:05;52.15;;;14.57;;
56297;SDS011;42208;6.376;-10.782;2023-03-02T11:50:49;36.97;;;10.52;;
56297;SDS011;42208;6.376;-10.782;2023-03-02T11:53:42;55.88;;;17.20;;
56297;SDS011;42208;6.376;-10.782;2023-03-02T11:56:16;52.45;;;13.23;;
56297;SDS011;42208;6.376;-10.782;2023-03-02T11:58:47;41.28;;;10.50;;
56297;SDS011;42208;6.376;-10.782;2023-03-02T12:01:25;39.53;;;11.80;;
56297;SDS011;42208;6.376;-10.782;2023-03-02T12:04:04;53.20;;;16.35;;
56297;SDS011;42208;6.376;-10.782;2023-03-02T12:06:38;58.40;;;17.65;;
56297;SDS011;42208;6.376;-10.782;2023-03-02T12:09:10;38.92;;;9.35;;
56297;SDS011;42208;6.376;-10.782;2023-03-02T12:11:57;47.00;;;11.57;;
56297;SDS011;42208;6.376;-10.782;2023-03-02T12:14:44;49.30;;;12.07;;
56297;SDS011;42208;6.376;-10.782;2023-03-02T12:19:47;60.42;;;13.07;;
56297;SDS011;42208;6.376;-10.782;2023-03-02T12:22:24;55.85;;;11.70;;
56297;SDS011;42208;6.376;-10.782;2023-03-02T12:27:48;48.20;;;11.57;;
56297;SDS011;42208;6.376;-10.782;2023-03-02T12:30:20;40.35;;;8.25;;
56297;SDS011;42208;6.376;-10.782;2023-03-02T12:33:03;47.90;;;11.60;;
56297;SDS011;42208;6.376;-10.782;2023-03-02T12:35:44;40.42;;;9.57;;
56297;SDS011;42208;6.376;-10.782;2023-03-02T12:38:24;51.78;;;18.33;;
56297;SDS011;42208;6.376;-10.782;2023-03-02T12:46:34;45.97;;;10.63;;
56297;SDS011;42208;6.376;-10.782;2023-03-02T12:49:12;54.08;;;11.30;;
56297;SDS011;42208;6.376;-10.782;2023-03-02T12:54:21;59.22;;;10.98;;
56297;SDS011;42208;6.376;-10.782;2023-03-02T12:57:04;53.45;;;10.40;;
56297;SDS011;42208;6.376;-10.782;2023-03-02T12:59:42;56.10;;;16.23;;
56297;SDS011;42208;6.376;-10.782;2023-03-02T13:02:22;55.55;;;16.08;;
56297;SDS011;42208;6.376;-10.782;2023-03-02T13:05:00;57.65;;;16.40;;
56297;SDS011;42208;6.376;-10.782;2023-03-02T13:15:53;57.80;;;12.82;;
56297;SDS011;42208;6.376;-10.782;2023-03-02T13:18:27;46.55;;;11.15;;
56297;SDS011;42208;6.376;-10.782;2023-03-02T13:21:01;48.20;;;8.43;;
56297;SDS011;42208;6.376;-10.782;2023-03-02T13:23:31;54.90;;;9.93;;
56297;SDS011;42208;6.376;-10.782;2023-03-02T13:26:01;55.05;;;11.45;;
56297;SDS011;42208;6.376;-10.782;2023-03-02T13:28:33;49.95;;;10.05;;
56297;SDS011;42208;6.376;-10.782;2023-03-02T13:31:21;55.20;;;11.32;;
56297;SDS011;42208;6.376;-10.782;2023-03-02T13:33:51;57.40;;;13.20;;
56297;SDS011;42208;6.376;-10.782;2023-03-02T13:36:26;53.38;;;12.15;;
56297;SDS011;42208;6.376;-10.782;2023-03-02T13:39:05;54.58;;;9.52;;
56297;SDS011;42208;6.376;-10.782;2023-03-02T13:41:50;51.25;;;10.55;;
56297;SDS011;42208;6.376;-10.782;2023-03-02T13:44:25;51.35;;;9.55;;
56297;SDS011;42208;6.376;-10.782;2023-03-02T13:46:54;49.47;;;12.90;;
56297;SDS011;42208;6.376;-10.782;2023-03-02T13:49:24;54.00;;;11.18;;
56297;SDS011;42208;6.376;-10.782;2023-03-02T13:52:01;65.13;;;16.95;;
56297;SDS011;42208;6.376;-10.782;2023-03-02T13:54:34;83.38;;;22.05;;
56297;SDS011;42208;6.376;-10.782;2023-03-02T13:57:03;44.53;;;12.73;;
56297;SDS011;42208;6.376;-10.782;2023-03-02T13:59:33;92.13;;;20.85;;
56297;SDS011;42208;6.376;-10.782;2023-03-02T14:02:01;51.42;;;12.02;;
56297;SDS011;42208;6.376;-10.782;2023-03-02T14:04:38;57.35;;;12.75;;
56297;SDS011;42208;6.376;-10.782;2023-03-02T14:07:06;68.97;;;20.23;;
56297;SDS011;42208;6.376;-10.782;2023-03-02T14:09:34;44.30;;;11.38;;
56297;SDS011;42208;6.376;-10.782;2023-03-02T14:12:03;57.28;;;13.45;;
56297;SDS011;42208;6.376;-10.782;2023-03-02T14:14:34;74.28;;;13.60;;
56297;SDS011;42208;6.376;-10.782;2023-03-02T14:17:09;61.77;;;12.40;;
56297;SDS011;42208;6.376;-10.782;2023-03-02T14:19:41;71.45;;;13.18;;
56297;SDS011;42208;6.376;-10.782;2023-03-02T14:22:09;61.08;;;10.88;;
56297;SDS011;42208;6.376;-10.782;2023-03-02T14:24:37;42.95;;;8.10;;
56297;SDS011;42208;6.376;-10.782;2023-03-02T14:27:07;40.90;;;10.40;;
56297;SDS011;42208;6.376;-10.782;2023-03-02T14:29:36;56.03;;;11.68;;
56297;SDS011;42208;6.376;-10.782;2023-03-02T14:32:04;62.78;;;19.65;;
56297;SDS011;42208;6.376;-10.782;2023-03-02T14:34:33;69.25;;;15.98;;
56297;SDS011;42208;6.376;-10.782;2023-03-02T14:37:06;54.38;;;12.95;;
56297;SDS011;42208;6.376;-10.782;2023-03-02T14:39:41;73.68;;;20.95;;
56297;SDS011;42208;6.376;-10.782;2023-03-02T14:42:13;61.45;;;18.40;;
56297;SDS011;42208;6.376;-10.782;2023-03-02T14:44:43;52.83;;;13.32;;
56297;SDS011;42208;6.376;-10.782;2023-03-02T14:47:13;72.95;;;26.33;;
56297;SDS011;42208;6.376;-10.782;2023-03-02T14:49:42;52.65;;;15.15;;
56297;SDS011;42208;6.376;-10.782;2023-03-02T14:52:18;53.53;;;14.48;;
56297;SDS011;42208;6.376;-10.782;2023-03-02T14:54:53;60.50;;;11.98;;
56297;SDS011;42208;6.376;-10.782;2023-03-02T14:57:25;43.45;;;13.15;;
56297;SDS011;42208;6.376;-10.782;2023-03-02T14:59:55;52.90;;;12.25;;
56297;SDS011;42208;6.376;-10.782;2023-03-02T15:02:23;50.63;;;13.20;;
56297;SDS011;42208;6.376;-10.782;2023-03-02T15:04:53;62.10;;;14.40;;
56297;SDS011;42208;6.376;-10.782;2023-03-02T15:07:24;73.35;;;13.80;;
56297;SDS011;42208;6.376;-10.782;2023-03-02T15:09:54;47.92;;;10.82;;
56297;SDS011;42208;6.376;-10.782;2023-03-02T15:12:24;74.05;;;16.38;;
56297;SDS011;42208;6.376;-10.782;2023-03-02T15:14:52;52.13;;;11.45;;
56297;SDS011;42208;6.376;-10.782;2023-03-02T15:17:20;90.28;;;21.70;;
56297;SDS011;42208;6.376;-10.782;2023-03-02T15:19:49;53.47;;;15.48;;
56297;SDS011;42208;6.376;-10.782;2023-03-02T15:22:17;62.67;;;19.67;;
56297;SDS011;42208;6.376;-10.782;2023-03-02T15:24:45;56.85;;;10.80;;
56297;SDS011;42208;6.376;-10.782;2023-03-02T15:27:14;66.32;;;14.13;;
56297;SDS011;42208;6.376;-10.782;2023-03-02T15:29:43;40.65;;;8.98;;
56297;SDS011;42208;6.376;-10.782;2023-03-02T15:32:12;59.90;;;14.15;;
56297;SDS011;42208;6.376;-10.782;2023-03-02T15:34:41;50.03;;;7.97;;
56297;SDS011;42208;6.376;-10.782;2023-03-02T15:37:10;43.83;;;10.55;;
56297;SDS011;42208;6.376;-10.782;2023-03-02T15:39:39;51.35;;;12.48;;
56297;SDS011;42208;6.376;-10.782;2023-03-02T15:42:07;55.75;;;16.10;;
56297;SDS011;42208;6.376;-10.782;2023-03-02T15:44:38;48.50;;;10.87;;
56297;SDS011;42208;6.376;-10.782;2023-03-02T15:47:06;33.30;;;8.40;;